This is the latest recevied weather packets stored in our database for station/object K7EK. If no packets are shown the sender has not sent any weather packets the latest 10 day(s).
| Time | Temp. | Humidity | Pressure | Rain* | Wind** | Luminosity | Snow |
|---|---|---|---|---|---|---|---|
| 1777554054 | 10° C | 73% | 1016.9 hPa | 0 mm | - | - | - |
| 1777550449 | 7.78° C | 82% | 1016.3 hPa | 0 mm | - | - | - |
| 1777546855 | 5.56° C | 86% | 1015.3 hPa | 0 mm | - | - | - |
| 1777545947 | 6.11° C | 85% | 1015.4 hPa | 0 mm | - | - | - |
| 1777538763 | 7.22° C | 77% | 1014.8 hPa | 0 mm | - | - | - |
| 1777537864 | 7.78° C | 77% | 1014.9 hPa | 0 mm | - | - | - |
| 1777536953 | 7.78° C | 76% | 1014.6 hPa | 0 mm | - | - | - |
| 1777536048 | 8.33° C | 75% | 1014.4 hPa | 0 mm | - | - | - |
| 1777523450 | 11.67° C | 74% | 1015.5 hPa | 0 mm | - | - | - |
| 1777518052 | 11.67° C | 79% | 1014.6 hPa | 0 mm | - | - | - |
| 1777514455 | 12.78° C | 76% | 1014.2 hPa | 0 mm | - | - | - |
| 1777512648 | 13.89° C | 72% | 1013.6 hPa | 0 mm | - | - | - |
| 1777506349 | 17.78° C | 60% | 1012.1 hPa | 0 mm | - | - | - |
| 1777503649 | 18.89° C | 59% | 1012.2 hPa | 0 mm | - | - | - |
| 1777500951 | 19.44° C | 61% | 1012.1 hPa | 0 mm | - | - | - |
| 1777489252 | 18.89° C | 71% | 1012.1 hPa | 0 mm | - | - | - |
| 1777485653 | 16.67° C | 86% | 1012.4 hPa | 0 mm | - | - | - |
| 1777482950 | 16.11° C | 90% | 1012.4 hPa | 0 mm | - | - | - |
| 1777480246 | 17.78° C | 90% | 1011.3 hPa | 0.25 mm | - | - | - |
| 1777477553 | 16.67° C | 97% | 1011.1 hPa | 0.25 mm | - | - | - |
| 1777476647 | 16.67° C | 97% | 1010.7 hPa | 0.51 mm | - | - | - |
| 1777473053 | 17.22° C | 98% | 1009.8 hPa | 0.25 mm | - | - | - |
| 1777470356 | 16.67° C | 99% | 1009.7 hPa | 1.27 mm | - | - | - |
| 1777469455 | 16.67° C | 98% | 1009.7 hPa | 1.78 mm | - | - | - |
| 1777468549 | 16.67° C | 98% | 1009.8 hPa | 1.52 mm | - | - | - |
* Rain latest hour (hover to see other rain measurements)
** Current wind speed in m/s (hover to see current wind gust speed)